Aérodrome :
LOGIN :

S'inscrire | Disclaimer

   EN    FR    IT 

 










Légende :    VFR   VFR Marginal   IFR   IFR Intensif   IFR Très Intensif
Visi : 
Plafond : 
>= 8 km
>= 3000ft
5 à 8 km
1000 à 3000 ft
1500m à 5 km
500 à 1000 ft
800 à 1500m
200 à 500 ft
< 800m
< 200 ft
Symboles :   Orages  Brouillard  Fortes neiges  Fortes précipitations  Vent > 20 kt
SIGMETs :   Divers  Orages  Givrage  Turbulence  Onde Orograph.  Cendres Volcan.






- Altitude de l'aérodrome : 628 ft
- Code IATA : PNL


LICG - Pantelleria

DERNIER METAR :
  • 261250Z 16020KT 9999 FEW015 22/17 Q1015

METARs EXPIRÉS :
  • 261150Z 18021KT 9999 FEW015 22/17 Q1015
  • 261050Z 18022KT 9999 FEW020 22/16 Q1016
  • 260950Z 17019KT 9999 FEW020 21/16 Q1017

TAF TAF LICG
Valide du 26 à 12h jusqu'au 26 à 21h UTC


261100Z 2612/2621 16015KT CAVOK



MET'MAP, la Météo Aéronautique d'un coup d'oeil ! - Copyright ORBIFLY Décembre 2007 - Disclaimer

ORBIFLY MET'MAP TEAM :

Programmation & Développement : Alexandra Zaïnal
Sur une idée originale de : Baudouin d'Aumeries
Assistance à la programmation : Marc-Olivier Méhu
Soutien technique & logistique : Manuel Goepfert

Contact : metmap@orbifly.com




SOURCES & CREDITS :

   NOAA